Terminal Aerodrome Forecast
Issued by NWS

Current Version | Previous Version | Text Only | Print | Product List | Glossary Off
Versions: 1 2 3 4 5 6 7 8 9 10 11 12 13 14 15

000
FTUS42 KILM 251120
TAFCRE
TAF
KCRE 251120Z 2512/2612 00000KT 3SM BR SKC
     FM251300 09007KT P6SM VCSH BKN025 BKN050
     FM260100 06006KT P6SM BKN015=

USA.gov is the U.S. government's official web portal to all federal, state and local government web resources and services.